Ora Direzione Vento Velocita' Vento Media Vento Raffica Max. Temperatura Wind Chill Pioggia Pressione
02:41:41.025 °(NNE)3.2 Kts2.83 Kts4.1 Kts8.1 °C7.39 °C0.0 mm1025.0 Hpa
02:21:36.026 °(NNE)2.9 Kts2.8 Kts4.1 Kts8.1 °C7.63 °C0.0 mm1024.2 Hpa
02:01:20.014 °(NNE)3.2 Kts2.76 Kts4.1 Kts8.1 °C7.39 °C0.0 mm1024.6 Hpa
01:41:13.025 °(NNE)3.1 Kts2.66 Kts4.1 Kts7.9 °C7.32 °C0.0 mm1025.0 Hpa
01:20:59.016 °(NNE)3.4 Kts3.26 Kts4.1 Kts7.8 °C6.96 °C0.0 mm1026.8 Hpa
01:00:44.032 °(NNE)3.4 Kts3.4 Kts10.8 Kts7.5 °C6.61 °C0.0 mm1024.2 Hpa
00:40:36.027 °(NNE)3.3 Kts2.3 Kts10.8 Kts7.4 °C6.59 °C0.0 mm1025.5 Hpa
00:21:41.01 °(N)1.7 Kts2.23 Kts10.8 Kts7.6 °C7.89 °C0.0 mm1024.6 Hpa
00:01:32.08 °(N)2.3 Kts2.4 Kts10.8 Kts7.5 °C7.28 °C0.0 mm1023.8 Hpa
23:41:17.01 °(N)2.2 Kts2.23 Kts10.8 Kts7.4 °C7.26 °C0.0 mm1026.0 Hpa
23:21:09.00 °(N)1.6 Kts1.76 Kts10.8 Kts7.5 °C7.88 °C0.0 mm1025.1 Hpa
22:59:54.00 °(N)2.6 Kts1.83 Kts10.8 Kts8.0 °C7.6 °C0.0 mm1022.5 Hpa
22:41:00.00 °(N)1.3 Kts1.06 Kts10.8 Kts8.3 °C9.15 °C0.0 mm1024.7 Hpa
22:20:57.00 °(N)1.7 Kts1.66 Kts10.8 Kts8.3 °C8.66 °C0.0 mm1024.3 Hpa
22:00:43.00 °(N)1.5 Kts1.23 Kts10.8 Kts8.3 °C8.82 °C0.0 mm1024.3 Hpa
21:40:34.00 °(N)0.9 Kts1.1 Kts10.8 Kts8.8 °C10.08 °C0.0 mm1024.3 Hpa
21:21:37.00 °(N)1.0 Kts1.2 Kts10.8 Kts8.8 °C10.0 °C0.0 mm1025.2 Hpa
21:01:28.00 °(N)0.8 Kts0.7 Kts10.8 Kts8.8 °C10.23 °C0.0 mm1024.3 Hpa
20:41:23.00 °(N)1.8 Kts1.63 Kts10.8 Kts9.1 °C9.46 °C0.0 mm1024.8 Hpa
20:21:14.00 °(N)1.4 Kts1.3 Kts10.8 Kts9.8 °C10.53 °C0.0 mm1024.8 Hpa